createdAt,value
2022-10-02T00:00:05.867Z,0.00
2022-10-02T00:01:05.909Z,0.00
2022-10-02T00:02:05.851Z,0.00
2022-10-02T00:03:05.877Z,0.00
2022-10-02T00:04:05.910Z,0.00
2022-10-02T00:05:05.823Z,0.00
2022-10-02T00:06:05.826Z,0.00
2022-10-02T00:07:05.811Z,0.00
2022-10-02T00:08:05.790Z,0.00
2022-10-02T00:09:05.792Z,0.00
2022-10-02T00:10:05.787Z,0.00
2022-10-02T00:11:05.756Z,0.00
2022-10-02T00:12:05.767Z,0.00
2022-10-02T00:13:05.757Z,0.00
2022-10-02T00:14:05.727Z,0.00
2022-10-02T00:15:05.767Z,0.00
2022-10-02T00:16:05.741Z,0.00
2022-10-02T00:17:05.956Z,0.00
2022-10-02T00:18:05.677Z,0.00
2022-10-02T00:19:05.654Z,0.00
2022-10-02T00:20:05.655Z,0.00
2022-10-02T00:21:05.637Z,0.00
2022-10-02T00:22:05.637Z,0.00
2022-10-02T00:23:05.644Z,0.00
2022-10-02T00:24:05.647Z,0.00
2022-10-02T00:25:05.615Z,0.00
2022-10-02T00:26:05.601Z,0.00
2022-10-02T00:27:05.575Z,0.00
2022-10-02T00:28:05.616Z,0.00
2022-10-02T00:29:05.555Z,0.00
2022-10-02T00:30:05.517Z,0.00
2022-10-02T00:31:05.514Z,0.00
2022-10-02T00:32:05.532Z,0.00
2022-10-02T00:33:05.497Z,0.00
2022-10-02T00:34:05.462Z,0.00
2022-10-02T00:35:05.494Z,0.00
2022-10-02T00:36:05.504Z,0.00
2022-10-02T00:37:05.454Z,0.00
2022-10-02T00:38:05.465Z,0.00
2022-10-02T00:39:05.468Z,0.00
2022-10-02T00:40:05.434Z,0.00
2022-10-02T00:41:05.426Z,0.00
2022-10-02T00:42:05.432Z,0.00
2022-10-02T00:43:05.431Z,0.00
2022-10-02T00:44:05.464Z,0.00
2022-10-02T00:45:05.399Z,0.00
2022-10-02T00:46:05.424Z,0.00
2022-10-02T00:47:05.364Z,0.00
2022-10-02T00:48:05.413Z,0.00
2022-10-02T00:49:05.370Z,0.00
2022-10-02T00:50:05.345Z,0.00
2022-10-02T00:51:05.325Z,0.00
2022-10-02T00:52:05.294Z,0.00
2022-10-02T00:53:05.305Z,0.00
2022-10-02T00:54:05.324Z,0.00
2022-10-02T00:55:05.308Z,0.00
2022-10-02T00:56:05.273Z,0.00
2022-10-02T00:57:05.276Z,0.00
2022-10-02T00:58:05.324Z,0.00
2022-10-02T00:59:05.253Z,0.00
2022-10-02T01:00:05.212Z,0.00
2022-10-02T01:01:05.291Z,0.00
2022-10-02T01:02:05.243Z,0.00
2022-10-02T01:03:05.198Z,0.00
2022-10-02T01:04:05.201Z,0.00
2022-10-02T01:05:05.241Z,0.00
2022-10-02T01:06:05.153Z,0.00
2022-10-02T01:07:05.340Z,0.00
2022-10-02T01:08:05.164Z,0.00
2022-10-02T01:09:05.223Z,0.00
2022-10-02T01:10:05.115Z,0.00
2022-10-02T01:11:05.162Z,0.00
2022-10-02T01:12:05.176Z,0.00
2022-10-02T01:13:05.514Z,0.00
2022-10-02T01:14:05.093Z,0.00
2022-10-02T01:15:05.074Z,0.00
2022-10-02T01:16:05.111Z,0.00
2022-10-02T01:17:05.091Z,0.00
2022-10-02T01:18:05.194Z,0.00
2022-10-02T01:19:05.032Z,0.00
2022-10-02T01:20:05.013Z,0.00
2022-10-02T01:21:05.066Z,0.00
2022-10-02T01:22:05.135Z,0.00
2022-10-02T01:23:04.984Z,0.00
2022-10-02T01:24:05.000Z,0.00
2022-10-02T01:25:04.993Z,0.00
2022-10-02T01:26:04.940Z,0.00
2022-10-02T01:27:04.942Z,0.00
2022-10-02T01:28:05.027Z,0.00
2022-10-02T01:29:04.993Z,0.00
2022-10-02T01:30:04.923Z,0.00
2022-10-02T01:31:04.893Z,0.00
2022-10-02T01:32:04.933Z,0.00
2022-10-02T01:33:04.921Z,0.00
2022-10-02T01:34:04.871Z,0.00
2022-10-02T01:35:04.997Z,0.00
2022-10-02T01:36:05.083Z,0.00
2022-10-02T01:37:04.891Z,0.00
2022-10-02T01:38:04.875Z,0.00
2022-10-02T01:39:04.903Z,0.00
2022-10-02T01:40:04.831Z,0.00
2022-10-02T01:41:04.823Z,0.00
2022-10-02T01:42:04.914Z,0.00
2022-10-02T01:43:04.818Z,0.00
2022-10-02T01:44:04.869Z,0.00
2022-10-02T01:45:04.762Z,0.00
2022-10-02T01:46:04.819Z,0.00
2022-10-02T01:47:04.820Z,0.00
2022-10-02T01:48:04.873Z,0.00
2022-10-02T01:49:04.753Z,0.00
2022-10-02T01:50:04.711Z,0.00
2022-10-02T01:51:04.890Z,0.00
2022-10-02T01:52:04.774Z,0.00
2022-10-02T01:53:04.673Z,0.00
2022-10-02T01:54:04.690Z,0.00
2022-10-02T01:55:04.661Z,0.00
2022-10-02T01:56:04.669Z,0.00
2022-10-02T01:57:04.690Z,0.00
2022-10-02T01:58:04.668Z,0.00
2022-10-02T01:59:04.703Z,0.00
2022-10-02T02:00:04.570Z,0.00
2022-10-02T02:01:04.704Z,0.00
2022-10-02T02:02:04.606Z,0.00
2022-10-02T02:03:04.637Z,0.00
2022-10-02T02:04:04.561Z,0.00
2022-10-02T02:05:04.518Z,0.00
2022-10-02T02:06:04.531Z,0.00
2022-10-02T02:07:04.534Z,0.00
2022-10-02T02:08:04.499Z,0.00
2022-10-02T02:09:04.510Z,0.00
2022-10-02T02:10:04.499Z,0.00
2022-10-02T02:11:04.509Z,0.00
2022-10-02T02:12:04.479Z,0.00
2022-10-02T02:13:04.462Z,0.00
2022-10-02T02:14:04.518Z,0.00
2022-10-02T02:15:04.419Z,0.00
2022-10-02T02:16:04.421Z,0.00
2022-10-02T02:17:04.450Z,0.00
2022-10-02T02:18:04.406Z,0.00
2022-10-02T02:19:04.401Z,0.00
2022-10-02T02:20:04.383Z,0.00
2022-10-02T02:21:04.398Z,0.00
2022-10-02T02:22:04.337Z,0.00
2022-10-02T02:23:04.329Z,0.00
2022-10-02T02:24:04.328Z,0.00
2022-10-02T02:25:04.311Z,0.00
2022-10-02T02:26:04.329Z,0.00
2022-10-02T02:27:04.298Z,0.00
2022-10-02T02:28:04.332Z,0.00
2022-10-02T02:29:04.338Z,0.00
2022-10-02T02:30:04.336Z,0.00
2022-10-02T02:31:04.260Z,0.00
2022-10-02T02:32:04.258Z,0.00
2022-10-02T02:33:04.234Z,0.00
2022-10-02T02:34:04.240Z,0.00
2022-10-02T02:35:04.228Z,0.00
2022-10-02T02:36:04.208Z,0.00
2022-10-02T02:37:04.189Z,0.00
2022-10-02T02:38:04.172Z,0.00
2022-10-02T02:39:04.150Z,0.00
2022-10-02T02:40:04.178Z,0.00
2022-10-02T02:41:04.136Z,0.00
2022-10-02T02:42:04.148Z,0.00
2022-10-02T02:43:04.098Z,0.00
2022-10-02T02:44:04.110Z,0.00
2022-10-02T02:45:04.106Z,0.00
2022-10-02T02:46:04.111Z,0.00
2022-10-02T02:47:04.085Z,0.00
2022-10-02T02:48:04.047Z,0.00
2022-10-02T02:49:04.068Z,0.00
2022-10-02T02:50:04.035Z,0.00
2022-10-02T02:51:04.032Z,0.00
2022-10-02T02:52:04.016Z,0.00
2022-10-02T02:53:04.030Z,0.00
2022-10-02T02:54:04.010Z,0.00
2022-10-02T02:55:04.037Z,0.00
2022-10-02T02:56:03.973Z,0.00
2022-10-02T02:57:04.033Z,0.00
2022-10-02T02:58:03.947Z,0.00
2022-10-02T02:59:03.928Z,0.00
2022-10-02T03:00:03.906Z,0.00
2022-10-02T03:01:03.970Z,0.00
2022-10-02T03:02:03.935Z,0.00
2022-10-02T03:03:03.910Z,0.00
2022-10-02T03:04:03.897Z,0.00
2022-10-02T03:05:03.916Z,0.00
2022-10-02T03:06:03.887Z,0.00
2022-10-02T03:07:03.887Z,0.00
2022-10-02T03:08:03.848Z,0.00
2022-10-02T03:09:03.830Z,0.00
2022-10-02T03:10:03.876Z,0.00
2022-10-02T03:11:03.795Z,0.00
2022-10-02T03:12:03.781Z,0.00
2022-10-02T03:13:03.806Z,0.00
2022-10-02T03:14:03.815Z,0.00
2022-10-02T03:15:03.785Z,0.00
2022-10-02T03:16:03.828Z,0.00
2022-10-02T03:17:04.926Z,0.00
2022-10-02T03:18:03.739Z,0.00
2022-10-02T03:19:03.809Z,0.00
2022-10-02T03:20:03.695Z,0.00
2022-10-02T03:21:03.697Z,0.00
2022-10-02T03:22:03.667Z,0.00
2022-10-02T03:23:03.659Z,0.00
2022-10-02T03:24:03.637Z,0.00
2022-10-02T03:25:03.660Z,0.00
2022-10-02T03:26:03.657Z,0.00
2022-10-02T03:27:03.664Z,0.00
2022-10-02T03:28:03.642Z,0.00
2022-10-02T03:29:03.688Z,0.00
2022-10-02T03:30:03.606Z,0.00
2022-10-02T03:31:03.676Z,0.00
2022-10-02T03:32:03.576Z,0.00
2022-10-02T03:33:03.565Z,0.00
2022-10-02T03:34:03.556Z,0.00
2022-10-02T03:35:03.537Z,0.00
2022-10-02T03:36:03.545Z,0.00
2022-10-02T03:37:03.544Z,0.00
2022-10-02T03:38:03.500Z,0.00
2022-10-02T03:39:24.198Z,0.00
2022-10-02T03:40:04.497Z,0.00
2022-10-02T03:41:03.475Z,0.00
2022-10-02T03:42:03.503Z,0.00
2022-10-02T03:43:03.459Z,0.00
2022-10-02T03:44:03.585Z,0.00
2022-10-02T03:45:03.455Z,0.00
2022-10-02T03:46:03.557Z,0.00
2022-10-02T03:47:03.414Z,0.00
2022-10-02T03:48:03.424Z,0.00
2022-10-02T03:49:03.413Z,0.00
2022-10-02T03:50:03.404Z,0.00
2022-10-02T03:51:03.411Z,0.00
2022-10-02T03:52:03.390Z,0.00
2022-10-02T03:53:03.384Z,0.00
2022-10-02T03:54:03.385Z,0.00
2022-10-02T03:55:03.413Z,0.00
2022-10-02T03:56:03.325Z,0.00
2022-10-02T03:57:03.312Z,0.00
2022-10-02T03:58:03.294Z,0.00
2022-10-02T03:59:03.285Z,0.00
2022-10-02T04:00:03.287Z,0.00
2022-10-02T04:01:03.276Z,0.00
2022-10-02T04:02:03.308Z,0.00
2022-10-02T04:03:03.243Z,0.00
2022-10-02T04:04:03.253Z,0.00
2022-10-02T04:05:03.239Z,0.00
2022-10-02T04:06:03.214Z,0.00
2022-10-02T04:07:03.229Z,0.00
2022-10-02T04:08:03.203Z,0.00
2022-10-02T04:09:03.194Z,0.00
2022-10-02T04:10:03.193Z,0.00
2022-10-02T04:11:03.166Z,0.00
2022-10-02T04:12:03.202Z,0.00
2022-10-02T04:13:03.134Z,0.00
2022-10-02T04:14:03.521Z,0.00
2022-10-02T04:15:03.140Z,0.00
2022-10-02T04:16:03.117Z,0.00
2022-10-02T04:17:03.091Z,0.00
2022-10-02T04:18:03.083Z,0.00
2022-10-02T04:19:03.054Z,0.00
2022-10-02T04:20:03.053Z,0.00
2022-10-02T04:21:03.041Z,0.00
2022-10-02T04:22:03.044Z,0.00
2022-10-02T04:23:03.073Z,0.00
2022-10-02T04:24:03.043Z,0.00
2022-10-02T04:25:03.046Z,0.00
2022-10-02T04:26:02.975Z,0.00
2022-10-02T04:27:02.986Z,0.00
2022-10-02T04:28:03.004Z,0.00
2022-10-02T04:29:02.963Z,0.00
2022-10-02T04:30:02.950Z,0.00
2022-10-02T04:31:02.924Z,0.00
2022-10-02T04:32:02.929Z,0.00
2022-10-02T04:33:02.903Z,0.00
2022-10-02T04:34:02.885Z,0.00
2022-10-02T04:35:02.875Z,0.00
2022-10-02T04:36:02.878Z,0.00
2022-10-02T04:37:02.883Z,0.00
2022-10-02T04:38:02.882Z,0.00
2022-10-02T04:39:02.863Z,0.00
2022-10-02T04:40:02.863Z,0.00
2022-10-02T04:41:02.863Z,0.00
2022-10-02T04:42:02.832Z,0.00
2022-10-02T04:43:02.813Z,0.00
2022-10-02T04:44:02.832Z,0.00
2022-10-02T04:45:02.806Z,0.00
2022-10-02T04:46:02.836Z,0.00
2022-10-02T04:47:02.771Z,0.00
2022-10-02T04:48:02.772Z,0.00
2022-10-02T04:49:02.809Z,0.00
2022-10-02T04:50:02.807Z,0.00
2022-10-02T04:51:02.738Z,0.00
2022-10-02T04:52:02.731Z,0.00
2022-10-02T04:53:02.692Z,0.00
2022-10-02T04:54:02.702Z,0.00
2022-10-02T04:55:02.710Z,0.00
2022-10-02T04:56:02.659Z,0.00
2022-10-02T04:57:02.655Z,0.00
2022-10-02T04:58:02.624Z,0.00
2022-10-02T04:59:02.672Z,0.00
2022-10-02T05:00:02.620Z,0.00
2022-10-02T05:01:02.682Z,0.00
2022-10-02T05:02:02.639Z,0.00
2022-10-02T05:03:02.581Z,0.00
2022-10-02T05:04:04.144Z,0.00
2022-10-02T05:05:02.548Z,0.00
2022-10-02T05:06:02.571Z,0.00
2022-10-02T05:07:02.551Z,0.00
2022-10-02T05:08:02.552Z,0.00
2022-10-02T05:09:02.519Z,4.00
2022-10-02T05:10:02.547Z,0.00
2022-10-02T05:11:02.547Z,4.00
2022-10-02T05:12:02.555Z,4.00
2022-10-02T05:13:02.461Z,4.00
2022-10-02T05:14:02.510Z,4.00
2022-10-02T05:15:02.501Z,8.00
2022-10-02T05:16:02.552Z,8.00
2022-10-02T05:17:02.478Z,8.00
2022-10-02T05:18:02.482Z,8.00
2022-10-02T05:19:02.473Z,8.00
2022-10-02T05:20:02.491Z,12.00
2022-10-02T05:21:02.400Z,20.00
2022-10-02T05:22:02.421Z,24.00
2022-10-02T05:23:02.371Z,20.00
2022-10-02T05:24:02.379Z,24.00
2022-10-02T05:25:02.382Z,28.00
2022-10-02T05:26:02.411Z,28.00
2022-10-02T05:27:02.323Z,36.00
2022-10-02T05:28:02.361Z,44.00
2022-10-02T05:29:02.318Z,52.00
2022-10-02T05:30:02.557Z,64.00
2022-10-02T05:31:02.331Z,80.00
2022-10-02T05:32:02.280Z,100.00
2022-10-02T05:33:02.278Z,116.00
2022-10-02T05:34:02.242Z,124.00
2022-10-02T05:35:02.239Z,124.00
2022-10-02T05:36:02.229Z,120.00
2022-10-02T05:37:02.221Z,120.00
2022-10-02T05:38:02.234Z,140.00
2022-10-02T05:39:02.181Z,148.00
2022-10-02T05:40:02.199Z,148.00
2022-10-02T05:41:02.168Z,152.00
2022-10-02T05:42:02.147Z,164.00
2022-10-02T05:43:02.155Z,184.00
2022-10-02T05:44:02.142Z,192.00
2022-10-02T05:45:02.159Z,184.00
2022-10-02T05:46:02.163Z,160.00
2022-10-02T05:47:02.157Z,172.00
2022-10-02T05:48:02.119Z,188.00
2022-10-02T05:49:02.099Z,196.00
2022-10-02T05:50:02.102Z,200.00
2022-10-02T05:51:02.124Z,244.00
2022-10-02T05:52:02.076Z,252.00
2022-10-02T05:53:02.048Z,276.00
2022-10-02T05:54:02.043Z,304.00
2022-10-02T05:55:02.051Z,352.00
2022-10-02T05:56:02.030Z,408.00
2022-10-02T05:57:02.819Z,488.00
2022-10-02T05:58:01.999Z,536.00
2022-10-02T05:59:02.088Z,604.00
2022-10-02T06:00:01.992Z,648.00
2022-10-02T06:01:02.098Z,640.00
2022-10-02T06:02:02.001Z,592.00
2022-10-02T06:03:01.969Z,432.00
2022-10-02T06:04:01.959Z,416.00
2022-10-02T06:05:01.948Z,412.00
2022-10-02T06:06:01.899Z,432.00
2022-10-02T06:07:01.887Z,404.00
2022-10-02T06:08:01.904Z,376.00
2022-10-02T06:09:01.868Z,392.00
2022-10-02T06:10:01.917Z,440.00
2022-10-02T06:11:01.869Z,496.00
2022-10-02T06:12:02.019Z,516.00
2022-10-02T06:13:01.807Z,508.00
2022-10-02T06:14:01.794Z,468.00
2022-10-02T06:15:01.814Z,432.00
2022-10-02T06:16:01.807Z,388.00
2022-10-02T06:17:01.791Z,428.00
2022-10-02T06:18:01.758Z,456.00
2022-10-02T06:19:01.719Z,508.00
2022-10-02T06:20:03.657Z,504.00
2022-10-02T06:21:01.712Z,424.00
2022-10-02T06:22:01.697Z,388.00
2022-10-02T06:23:01.712Z,456.00
2022-10-02T06:24:01.674Z,628.00
2022-10-02T06:25:01.658Z,668.00
2022-10-02T06:26:01.667Z,736.00
2022-10-02T06:27:01.650Z,796.00
2022-10-02T06:28:01.691Z,944.00
2022-10-02T06:29:01.617Z,968.00
2022-10-02T06:30:01.640Z,972.00
2022-10-02T06:31:01.612Z,1152.00
2022-10-02T06:32:01.586Z,1360.00
2022-10-02T06:33:01.582Z,1516.00
2022-10-02T06:34:01.560Z,1660.00
2022-10-02T06:35:01.542Z,1832.00
2022-10-02T06:36:01.551Z,1864.00
2022-10-02T06:37:01.582Z,1952.00
2022-10-02T06:38:01.537Z,2028.00
2022-10-02T06:39:01.535Z,2008.00
2022-10-02T06:40:01.506Z,1900.00
2022-10-02T06:41:01.499Z,1696.00
2022-10-02T06:42:01.489Z,1816.00
2022-10-02T06:43:01.478Z,1784.00
2022-10-02T06:44:01.465Z,1688.00
2022-10-02T06:45:01.449Z,1648.00
2022-10-02T06:46:01.459Z,1684.00
2022-10-02T06:47:01.416Z,1716.00
2022-10-02T06:48:01.417Z,1848.00
2022-10-02T06:49:01.386Z,2168.00
2022-10-02T06:50:01.387Z,2204.00
2022-10-02T06:51:01.397Z,1960.00
2022-10-02T06:52:01.357Z,1224.00
2022-10-02T06:53:01.345Z,984.00
2022-10-02T06:54:01.343Z,928.00
2022-10-02T06:55:01.367Z,768.00
2022-10-02T06:56:01.349Z,884.00
2022-10-02T06:57:01.305Z,980.00
2022-10-02T06:58:01.306Z,1100.00
2022-10-02T06:59:01.285Z,992.00
2022-10-02T07:00:01.283Z,756.00
2022-10-02T07:01:01.304Z,592.00
2022-10-02T07:02:01.276Z,564.00
2022-10-02T07:03:01.265Z,640.00
2022-10-02T07:04:01.236Z,788.00
2022-10-02T07:05:01.702Z,1056.00
2022-10-02T07:06:01.215Z,1056.00
2022-10-02T07:07:01.195Z,1080.00
2022-10-02T07:08:01.194Z,1100.00
2022-10-02T07:09:01.176Z,1136.00
2022-10-02T07:10:01.176Z,1300.00
2022-10-02T07:11:01.159Z,1700.00
2022-10-02T07:12:01.196Z,1892.00
2022-10-02T07:13:01.148Z,1884.00
2022-10-02T07:14:01.128Z,2088.00
2022-10-02T07:15:01.111Z,2236.00
2022-10-02T07:16:01.227Z,2240.00
2022-10-02T07:17:01.096Z,2324.00
2022-10-02T07:18:01.077Z,2668.00
2022-10-02T07:19:01.074Z,2772.00
2022-10-02T07:20:01.089Z,2388.00
2022-10-02T07:21:01.052Z,2308.00
2022-10-02T07:22:01.061Z,2700.00
2022-10-02T07:23:01.026Z,2904.00
2022-10-02T07:24:02.625Z,2988.00
2022-10-02T07:25:01.045Z,3400.00
2022-10-02T07:26:01.018Z,3780.00
2022-10-02T07:27:00.995Z,3768.00
2022-10-02T07:28:01.024Z,3312.00
2022-10-02T07:29:00.975Z,3012.00
2022-10-02T07:30:01.628Z,3060.00
2022-10-02T07:31:00.936Z,3304.00
2022-10-02T07:32:00.983Z,3644.00
2022-10-02T07:33:00.955Z,3940.00
2022-10-02T07:34:00.944Z,4196.00
2022-10-02T07:35:00.907Z,4288.00
2022-10-02T07:36:00.895Z,4096.00
2022-10-02T07:37:00.909Z,4332.00
2022-10-02T07:38:00.878Z,4660.00
2022-10-02T07:39:00.854Z,4656.00
2022-10-02T07:40:00.859Z,4352.00
2022-10-02T07:41:00.936Z,4368.00
2022-10-02T07:42:00.865Z,4120.00
2022-10-02T07:43:00.805Z,4164.00
2022-10-02T07:44:00.816Z,4512.00
2022-10-02T07:45:00.807Z,4564.00
2022-10-02T07:46:00.828Z,4628.00
2022-10-02T07:47:00.766Z,4692.00
2022-10-02T07:48:00.774Z,4884.00
2022-10-02T07:49:00.754Z,5268.00
2022-10-02T07:50:00.739Z,5280.00
2022-10-02T07:51:00.735Z,5412.00
2022-10-02T07:52:00.765Z,6048.00
2022-10-02T07:53:00.695Z,5308.00
2022-10-02T07:54:00.706Z,5972.00
2022-10-02T07:55:00.717Z,6676.00
2022-10-02T07:56:00.683Z,6564.00
2022-10-02T07:57:00.739Z,8284.00
2022-10-02T07:58:00.653Z,6828.00
2022-10-02T07:59:00.643Z,8380.00
2022-10-02T08:00:00.626Z,6476.00
2022-10-02T08:01:00.625Z,7024.00
2022-10-02T08:02:00.676Z,6852.00
2022-10-02T08:03:00.667Z,6272.00
2022-10-02T08:04:00.648Z,6896.00
2022-10-02T08:05:00.624Z,8944.00
2022-10-02T08:06:00.682Z,6732.00
2022-10-02T08:07:00.555Z,6628.00
2022-10-02T08:08:00.552Z,6652.00
2022-10-02T08:09:00.546Z,6724.00
2022-10-02T08:10:00.528Z,6812.00
2022-10-02T08:11:00.516Z,6368.00
2022-10-02T08:12:00.608Z,6256.00
2022-10-02T08:13:00.503Z,6036.00
2022-10-02T08:14:00.496Z,5512.00
2022-10-02T08:15:00.493Z,4696.00
2022-10-02T08:16:00.529Z,4768.00
2022-10-02T08:17:00.474Z,4960.00
2022-10-02T08:18:16.522Z,5016.00
2022-10-02T08:19:01.417Z,4980.00
2022-10-02T08:20:00.424Z,4752.00
2022-10-02T08:21:00.396Z,4924.00
2022-10-02T08:22:00.426Z,4816.00
2022-10-02T08:23:00.414Z,4616.00
2022-10-02T08:24:00.384Z,4240.00
2022-10-02T08:25:00.345Z,4156.00
2022-10-02T08:26:00.349Z,4228.00
2022-10-02T08:27:00.353Z,4248.00
2022-10-02T08:28:00.437Z,4404.00
2022-10-02T08:29:00.305Z,4376.00
2022-10-02T08:30:00.306Z,4552.00
2022-10-02T08:31:00.321Z,4424.00
2022-10-02T08:32:00.386Z,4384.00
2022-10-02T08:33:00.327Z,4328.00
2022-10-02T08:34:00.335Z,4696.00
2022-10-02T08:35:00.275Z,4112.00
2022-10-02T08:36:00.273Z,3956.00
2022-10-02T08:37:00.498Z,4276.00
2022-10-02T08:38:00.257Z,4396.00
2022-10-02T08:39:00.297Z,4544.00
2022-10-02T08:40:00.287Z,4916.00
2022-10-02T08:41:00.437Z,5272.00
2022-10-02T08:42:00.222Z,5468.00
2022-10-02T08:43:00.186Z,5636.00
2022-10-02T08:44:00.165Z,5588.00
2022-10-02T08:45:00.176Z,6356.00
2022-10-02T08:46:00.251Z,7576.00
2022-10-02T08:47:00.176Z,7552.00
2022-10-02T08:48:00.178Z,6140.00
2022-10-02T08:49:00.124Z,5644.00
2022-10-02T08:50:00.119Z,5984.00
2022-10-02T08:51:00.110Z,6188.00
2022-10-02T08:52:00.109Z,5220.00
2022-10-02T08:53:00.107Z,4888.00
2022-10-02T08:54:00.084Z,5352.00
2022-10-02T08:55:00.576Z,5220.00
2022-10-02T08:56:00.069Z,4960.00
2022-10-02T08:57:00.049Z,5276.00
2022-10-02T08:58:00.020Z,5956.00
2022-10-02T08:59:00.008Z,6924.00
2022-10-02T09:00:00.113Z,7708.00
2022-10-02T09:01:00.047Z,5200.00
2022-10-02T09:02:00.308Z,6020.00
2022-10-02T09:02:59.977Z,6328.00
2022-10-02T09:03:59.947Z,5528.00
2022-10-02T09:04:59.943Z,6720.00
2022-10-02T09:05:59.956Z,6288.00
2022-10-02T09:06:59.938Z,7172.00
2022-10-02T09:07:59.968Z,5728.00
2022-10-02T09:08:59.944Z,5408.00
2022-10-02T09:09:59.905Z,5276.00
2022-10-02T09:10:59.906Z,5944.00
2022-10-02T09:11:59.887Z,5776.00
2022-10-02T09:12:59.907Z,5980.00
2022-10-02T09:13:59.839Z,5724.00
2022-10-02T09:14:59.910Z,5828.00
2022-10-02T09:15:59.892Z,5844.00
2022-10-02T09:16:59.859Z,8480.00
2022-10-02T09:17:59.783Z,6556.00
2022-10-02T09:18:59.772Z,5528.00
2022-10-02T09:19:59.779Z,5492.00
2022-10-02T09:20:59.778Z,6044.00
2022-10-02T09:21:59.762Z,6296.00
2022-10-02T09:22:59.770Z,4980.00
2022-10-02T09:23:59.776Z,5240.00
2022-10-02T09:24:59.768Z,6520.00
2022-10-02T09:25:59.727Z,7164.00
2022-10-02T09:26:59.759Z,6420.00
2022-10-02T09:27:59.798Z,7232.00
2022-10-02T09:28:59.709Z,7716.00
2022-10-02T09:29:59.698Z,6632.00
2022-10-02T09:30:59.699Z,5268.00
2022-10-02T09:31:59.707Z,6148.00
2022-10-02T09:32:59.640Z,4824.00
2022-10-02T09:33:59.609Z,4940.00
2022-10-02T09:34:59.610Z,5028.00
2022-10-02T09:35:59.601Z,6464.00
2022-10-02T09:36:59.570Z,6632.00
2022-10-02T09:37:59.578Z,6604.00
2022-10-02T09:38:59.551Z,5668.00
2022-10-02T09:39:59.590Z,4360.00
2022-10-02T09:40:59.529Z,2828.00
2022-10-02T09:41:59.519Z,2768.00
2022-10-02T09:42:59.540Z,3288.00
2022-10-02T09:43:59.490Z,4496.00
2022-10-02T09:45:01.853Z,6236.00
2022-10-02T09:45:59.506Z,5860.00
2022-10-02T09:46:59.459Z,6128.00
2022-10-02T09:47:59.461Z,7388.00
2022-10-02T09:48:59.449Z,5768.00
2022-10-02T09:49:59.428Z,5156.00
2022-10-02T09:50:59.419Z,5116.00
2022-10-02T09:51:59.419Z,4692.00
2022-10-02T09:52:59.449Z,4192.00
2022-10-02T09:53:59.387Z,4080.00
2022-10-02T09:54:59.387Z,4244.00
2022-10-02T09:55:59.371Z,4496.00
2022-10-02T09:56:59.355Z,4944.00
2022-10-02T09:57:59.364Z,5092.00
2022-10-02T09:58:59.432Z,5504.00
2022-10-02T09:59:59.320Z,5588.00
2022-10-02T10:00:59.366Z,5540.00
2022-10-02T10:01:59.382Z,5460.00
2022-10-02T10:02:59.314Z,5272.00
2022-10-02T10:03:59.288Z,5584.00
2022-10-02T10:05:06.564Z,5948.00
2022-10-02T10:06:00.289Z,5992.00
2022-10-02T10:06:59.283Z,6724.00
2022-10-02T10:07:59.302Z,6704.00
2022-10-02T10:08:59.240Z,6668.00
2022-10-02T10:09:59.462Z,5876.00
2022-10-02T10:10:59.212Z,5648.00
2022-10-02T10:11:59.200Z,5788.00
2022-10-02T10:12:59.190Z,5904.00
2022-10-02T10:13:59.203Z,5712.00
2022-10-02T10:14:59.161Z,5656.00
2022-10-02T10:15:59.229Z,5660.00
2022-10-02T10:16:59.178Z,5664.00
2022-10-02T10:17:59.142Z,5796.00
2022-10-02T10:18:59.165Z,5652.00
2022-10-02T10:19:59.121Z,5356.00
2022-10-02T10:20:59.113Z,5216.00
2022-10-02T10:21:59.096Z,5356.00
2022-10-02T10:22:59.070Z,5140.00
2022-10-02T10:23:59.081Z,5340.00
2022-10-02T10:24:59.061Z,5636.00
2022-10-02T10:25:59.040Z,6064.00
2022-10-02T10:26:59.039Z,6092.00
2022-10-02T10:27:59.075Z,6104.00
2022-10-02T10:28:59.047Z,6224.00
2022-10-02T10:29:59.011Z,6600.00
2022-10-02T10:30:58.991Z,6480.00
2022-10-02T10:31:59.040Z,8048.00
2022-10-02T10:32:58.962Z,8568.00
2022-10-02T10:33:58.970Z,8976.00
2022-10-02T10:34:58.951Z,9188.00
2022-10-02T10:35:58.930Z,10256.00
2022-10-02T10:36:58.940Z,9360.00
2022-10-02T10:37:58.913Z,9196.00
2022-10-02T10:38:58.916Z,8664.00
2022-10-02T10:39:58.883Z,7904.00
2022-10-02T10:40:58.882Z,7340.00
2022-10-02T10:41:58.872Z,7100.00
2022-10-02T10:43:16.716Z,6536.00
2022-10-02T10:43:59.850Z,5592.00
2022-10-02T10:44:58.832Z,5376.00
2022-10-02T10:45:58.886Z,5260.00
2022-10-02T10:46:58.815Z,6844.00
2022-10-02T10:47:58.803Z,5760.00
2022-10-02T10:48:58.812Z,5836.00
2022-10-02T10:49:58.774Z,7332.00
2022-10-02T10:50:58.783Z,6420.00
2022-10-02T10:51:58.760Z,6516.00
2022-10-02T10:52:58.780Z,6220.00
2022-10-02T10:54:01.920Z,5820.00
2022-10-02T10:54:58.803Z,4944.00
2022-10-02T10:55:58.753Z,4360.00
2022-10-02T10:56:58.793Z,3856.00
2022-10-02T10:57:58.752Z,3284.00
2022-10-02T10:58:58.734Z,2964.00
2022-10-02T10:59:58.992Z,3240.00
2022-10-02T11:00:58.738Z,3332.00
2022-10-02T11:01:58.724Z,5072.00
2022-10-02T11:02:58.674Z,5312.00
2022-10-02T11:03:58.653Z,3996.00
2022-10-02T11:04:58.665Z,5420.00
2022-10-02T11:05:58.614Z,4692.00
2022-10-02T11:06:58.624Z,4960.00
2022-10-02T11:07:58.603Z,6204.00
2022-10-02T11:08:58.584Z,7008.00
2022-10-02T11:09:58.563Z,7032.00
2022-10-02T11:10:58.580Z,8440.00
2022-10-02T11:11:58.543Z,8172.00
2022-10-02T11:12:58.534Z,7992.00
2022-10-02T11:13:58.544Z,7676.00
2022-10-02T11:14:58.530Z,7080.00
2022-10-02T11:15:58.529Z,5664.00
2022-10-02T11:16:58.507Z,5336.00
2022-10-02T11:17:58.492Z,5124.00
2022-10-02T11:18:58.479Z,4740.00
2022-10-02T11:19:58.455Z,6148.00
2022-10-02T11:20:58.454Z,7180.00
2022-10-02T11:21:58.471Z,8288.00
2022-10-02T11:22:58.428Z,8752.00
2022-10-02T11:23:58.425Z,9732.00
2022-10-02T11:24:58.414Z,8748.00
2022-10-02T11:25:58.387Z,7696.00
2022-10-02T11:26:58.384Z,7644.00
2022-10-02T11:27:58.423Z,8624.00
2022-10-02T11:28:58.378Z,9348.00
2022-10-02T11:29:58.352Z,9216.00
2022-10-02T11:30:58.336Z,9048.00
2022-10-02T11:31:58.390Z,8308.00
2022-10-02T11:32:58.306Z,8488.00
2022-10-02T11:33:58.345Z,8468.00
2022-10-02T11:34:58.317Z,8476.00
2022-10-02T11:35:58.279Z,7748.00
2022-10-02T11:36:58.270Z,7252.00
2022-10-02T11:38:01.806Z,7136.00
2022-10-02T11:38:59.309Z,7836.00
2022-10-02T11:39:58.238Z,7136.00
2022-10-02T11:40:58.228Z,6208.00
2022-10-02T11:41:58.680Z,5964.00
2022-10-02T11:42:58.215Z,6436.00
2022-10-02T11:43:58.189Z,8848.00
2022-10-02T11:44:58.207Z,8912.00
2022-10-02T11:45:58.262Z,7652.00
2022-10-02T11:46:58.198Z,7312.00
2022-10-02T11:47:58.169Z,7652.00
2022-10-02T11:48:58.157Z,8520.00
2022-10-02T11:49:58.140Z,6468.00
2022-10-02T11:50:58.135Z,6120.00
2022-10-02T11:51:58.131Z,5484.00
2022-10-02T11:52:58.106Z,5260.00
2022-10-02T11:53:58.118Z,3732.00
2022-10-02T11:54:58.088Z,2828.00
2022-10-02T11:55:58.077Z,2468.00
2022-10-02T11:56:58.150Z,2376.00
2022-10-02T11:57:58.039Z,2528.00
2022-10-02T11:58:58.048Z,2812.00
2022-10-02T11:59:58.038Z,3152.00
2022-10-02T12:00:58.039Z,3488.00
2022-10-02T12:01:58.055Z,3392.00
2022-10-02T12:02:58.086Z,2908.00
2022-10-02T12:03:58.140Z,2588.00
2022-10-02T12:04:58.049Z,2496.00
2022-10-02T12:05:58.013Z,2748.00
2022-10-02T12:06:57.989Z,3604.00
2022-10-02T12:07:57.961Z,5040.00
2022-10-02T12:08:57.952Z,6896.00
2022-10-02T12:09:57.927Z,8844.00
2022-10-02T12:10:57.939Z,9296.00
2022-10-02T12:11:57.919Z,9680.00
2022-10-02T12:12:57.890Z,9436.00
2022-10-02T12:13:57.908Z,9272.00
2022-10-02T12:14:57.897Z,7976.00
2022-10-02T12:15:57.851Z,6776.00
2022-10-02T12:16:57.897Z,6296.00
2022-10-02T12:17:57.850Z,6288.00
2022-10-02T12:18:58.052Z,6220.00
2022-10-02T12:19:57.862Z,5884.00
2022-10-02T12:20:57.801Z,5524.00
2022-10-02T12:21:57.831Z,5984.00
2022-10-02T12:22:57.808Z,5156.00
2022-10-02T12:23:57.807Z,5060.00
2022-10-02T12:24:57.770Z,5144.00
2022-10-02T12:25:57.785Z,6348.00
2022-10-02T12:26:57.803Z,7660.00
2022-10-02T12:27:57.819Z,7476.00
2022-10-02T12:28:57.752Z,7488.00
2022-10-02T12:29:57.746Z,6912.00
2022-10-02T12:30:57.742Z,6056.00
2022-10-02T12:31:57.744Z,3980.00
2022-10-02T12:32:57.713Z,3936.00
2022-10-02T12:33:57.705Z,4544.00
2022-10-02T12:34:57.712Z,5260.00
2022-10-02T12:35:57.703Z,5276.00
2022-10-02T12:36:57.685Z,6240.00